Tampa International Airport
KTPA : now visible

Airfield :











YOU CAN JOIN US ON...

 
LOGIN :

Register | Disclaimer

   EN    FR    IT 

 









Legend :    VFR   Marginal VFR   IFR   Intensive IFR   Very Intensive IFR
Visi :
Ceiling :
>= 8 km
>= 3000ft
5 to 8 km
1000 to 3000 ft
1500m to 5 km
500 to 1000 ft
800 to 1500m
200 to 500 ft
< 800m
< 200 ft
Symbols :   Thunderstorms  Fog  Heavy snow  Heavy precipitations  Wind > 20 kt






- Airport Elevation : 26 ft
- IATA code : TPA


KTPA - Tampa International

CURRENT METAR :
  • 201038Z 03003KT 10SM VCTS SCT030 BKN080 OVC100 21/17 A2994 RMK AO2 LTG DSNT SW-NW TSE35 FQT LTGIC DSNT SW-W CB DSNT SW-W T02110172

EXPIRED METARs :
  • 200953Z 03004KT 10SM FEW030 SCT070 BKN120 21/17 A2993 RMK AO2 SLP133 T02060167
  • 200853Z 03004KT 10SM BKN090 21/16 A2993 RMK AO2 SLP135 T02060161 58006

TAF KTPA
Valid from the 20 at 09:00 until the 21 at 12:00 UTC


200902Z 2009/2112 04004KT P6SM FEW015 BKN100
FM201000 12006KT P6SM VCTS SCT015CB OVC025
TEMPO 2011/2015 VRB10G20KT 3SM TSRA SCT008CB OVC015
FM201600 26010KT 5SM -RA VCTS SCT015CB OVC025
FM202000 29009KT P6SM VCSH OVC015
FM210300 VRB03KT P6SM BKN015 OVC100
KZJX FIR / North America



MET'MAP, your aeronautical weather chart ! - Copyright ORBIFLY December 2007 - Disclaimer

ORBIFLY MET'MAP TEAM :

Programming & Development : Alexandra Zaïnal
Concept & original design : Baudouin d'Aumeries
Assistance for programming : Marc-Olivier Méhu
Technical & hardware support : Manuel Goepfert

Contact : metmap@orbifly.com




SOURCES & CREDITS :

   NOAA       Earth
Advisory